createdAt,value
2022-12-29T00:00:14.538Z,7.10
2022-12-29T00:02:41.243Z,7.10
2022-12-29T00:05:08.096Z,7.20
2022-12-29T00:07:34.716Z,7.20
2022-12-29T00:10:01.319Z,7.40
2022-12-29T00:12:47.939Z,7.20
2022-12-29T00:15:33.488Z,7.10
2022-12-29T00:18:00.987Z,7.20
2022-12-29T00:20:46.294Z,7.10
2022-12-29T00:23:31.648Z,7.20
2022-12-29T00:26:17.737Z,9.30
2022-12-29T00:29:03.384Z,7.20
2022-12-29T00:31:48.529Z,7.20
2022-12-29T00:34:33.980Z,7.30
2022-12-29T00:37:01.256Z,7.30
2022-12-29T00:39:46.618Z,7.40
2022-12-29T00:42:31.639Z,7.60
2022-12-29T00:44:58.270Z,7.80
2022-12-29T00:47:24.899Z,7.80
2022-12-29T00:49:51.452Z,8.80
2022-12-29T00:52:18.069Z,7.90
2022-12-29T00:54:45.994Z,8.00
2022-12-29T00:57:13.259Z,7.90
2022-12-29T00:59:40.839Z,7.90
2022-12-29T01:02:07.937Z,7.90
2022-12-29T01:04:34.699Z,7.90
2022-12-29T01:07:01.404Z,7.90
2022-12-29T01:09:46.778Z,8.00
2022-12-29T01:12:13.592Z,9.60
2022-12-29T01:14:41.040Z,7.90
2022-12-29T01:17:07.702Z,7.90
2022-12-29T01:19:34.323Z,7.90
2022-12-29T01:22:00.951Z,7.90
2022-12-29T01:24:27.623Z,7.90
2022-12-29T01:26:55.474Z,7.90
2022-12-29T01:29:22.709Z,7.90
2022-12-29T01:31:50.747Z,9.50
2022-12-29T01:34:18.111Z,10.40
2022-12-29T01:36:44.898Z,8.00
2022-12-29T01:39:11.566Z,8.20
2022-12-29T01:41:38.258Z,8.20
2022-12-29T01:44:24.772Z,9.50
2022-12-29T01:46:52.348Z,8.20
2022-12-29T01:49:27.678Z,8.20
2022-12-29T01:51:54.296Z,8.30
2022-12-29T01:54:27.313Z,8.40
2022-12-29T01:56:56.037Z,8.40
2022-12-29T01:59:25.693Z,8.60
2022-12-29T02:01:52.446Z,8.70
2022-12-29T02:04:19.305Z,8.60
2022-12-29T02:06:58.125Z,8.70
2022-12-29T02:09:24.999Z,8.60
2022-12-29T02:11:52.640Z,10.60
2022-12-29T02:14:19.283Z,8.60
2022-12-29T02:16:58.182Z,8.60
2022-12-29T02:19:31.276Z,9.60
2022-12-29T02:22:07.125Z,8.50
2022-12-29T02:24:52.513Z,8.50
2022-12-29T02:27:32.451Z,8.40
2022-12-29T02:30:13.062Z,8.40
2022-12-29T02:32:39.606Z,8.30
2022-12-29T02:35:10.812Z,9.80
2022-12-29T02:37:47.823Z,8.30
2022-12-29T02:40:33.287Z,9.40
2022-12-29T02:43:05.171Z,8.20
2022-12-29T02:45:35.114Z,8.20
2022-12-29T02:48:04.805Z,8.20
2022-12-29T02:50:36.477Z,8.10
2022-12-29T02:53:11.963Z,8.10
2022-12-29T02:55:38.635Z,8.10
2022-12-29T02:58:16.834Z,8.20
2022-12-29T03:00:49.603Z,8.30
2022-12-29T03:03:29.003Z,8.40
2022-12-29T03:06:06.380Z,8.30
2022-12-29T03:08:45.207Z,8.40
2022-12-29T03:11:32.100Z,8.50
2022-12-29T03:14:36.049Z,8.60
2022-12-29T03:17:10.286Z,8.60
2022-12-29T03:19:38.569Z,8.80
2022-12-29T03:22:25.446Z,8.80
2022-12-29T03:24:53.655Z,8.90
2022-12-29T03:27:22.481Z,8.90
2022-12-29T03:29:55.498Z,8.90
2022-12-29T03:32:27.573Z,8.90
2022-12-29T03:34:54.486Z,8.90
2022-12-29T03:37:27.022Z,9.10
2022-12-29T03:39:53.677Z,9.10
2022-12-29T03:42:21.839Z,10.70
2022-12-29T03:44:48.710Z,9.20
2022-12-29T03:47:16.026Z,9.20
2022-12-29T03:49:42.638Z,9.10
2022-12-29T03:52:09.370Z,9.10
2022-12-29T03:54:36.079Z,9.10
2022-12-29T03:57:02.839Z,9.10
2022-12-29T03:59:29.497Z,9.10
2022-12-29T04:01:56.309Z,9.00
2022-12-29T04:04:23.355Z,7.60
2022-12-29T04:06:50.009Z,8.80
2022-12-29T04:09:16.798Z,8.70
2022-12-29T04:11:44.250Z,8.70
2022-12-29T04:14:10.964Z,10.10
2022-12-29T04:16:39.833Z,8.80
2022-12-29T04:19:07.051Z,8.80
2022-12-29T04:21:34.559Z,10.30
2022-12-29T04:24:01.264Z,8.90
2022-12-29T04:26:27.937Z,8.90
2022-12-29T04:28:54.613Z,8.90
2022-12-29T04:31:21.253Z,8.90
2022-12-29T04:33:47.957Z,8.90
2022-12-29T04:36:14.644Z,8.90
2022-12-29T04:38:41.503Z,9.00
2022-12-29T04:41:08.157Z,8.90
2022-12-29T04:43:34.824Z,8.80
2022-12-29T04:46:01.624Z,8.80
2022-12-29T04:48:28.380Z,8.80
2022-12-29T04:50:55.060Z,8.80
2022-12-29T04:53:21.789Z,8.90
2022-12-29T04:55:52.253Z,9.30
2022-12-29T04:58:22.907Z,9.10
2022-12-29T05:00:50.807Z,9.20
2022-12-29T05:03:17.687Z,9.30
2022-12-29T05:05:45.075Z,9.30
2022-12-29T05:08:11.735Z,9.20
2022-12-29T05:10:38.480Z,9.10
2022-12-29T05:13:05.124Z,9.10
2022-12-29T05:15:31.907Z,10.20
2022-12-29T05:17:58.606Z,9.10
2022-12-29T05:20:25.326Z,9.00
2022-12-29T05:22:52.123Z,9.00
2022-12-29T05:25:18.778Z,8.90
2022-12-29T05:27:45.437Z,8.80
2022-12-29T05:30:12.364Z,8.80
2022-12-29T05:32:39.062Z,8.90
2022-12-29T05:35:05.981Z,9.00
2022-12-29T05:37:32.621Z,9.10
2022-12-29T05:40:00.357Z,9.20
2022-12-29T05:42:26.974Z,9.30
2022-12-29T05:44:55.027Z,9.30
2022-12-29T05:47:21.763Z,9.40
2022-12-29T05:49:48.405Z,9.50
2022-12-29T05:52:15.116Z,9.50
2022-12-29T05:54:41.792Z,11.10
2022-12-29T05:57:08.580Z,9.50
2022-12-29T05:59:35.246Z,9.60
2022-12-29T06:02:02.263Z,9.60
2022-12-29T06:04:29.099Z,9.60
2022-12-29T06:06:55.672Z,9.50
2022-12-29T06:09:22.325Z,9.50
2022-12-29T06:11:48.988Z,9.50
2022-12-29T06:14:15.721Z,10.90
2022-12-29T06:16:43.003Z,9.50
2022-12-29T06:19:09.825Z,9.50
2022-12-29T06:21:36.505Z,9.50
2022-12-29T06:24:03.166Z,9.60
2022-12-29T06:26:30.851Z,9.60
2022-12-29T06:28:57.517Z,10.30
2022-12-29T06:31:24.202Z,9.70
2022-12-29T06:33:50.958Z,9.60
2022-12-29T06:36:17.729Z,9.60
2022-12-29T06:38:44.605Z,9.60
2022-12-29T06:41:11.263Z,10.70
2022-12-29T06:43:39.316Z,11.90
2022-12-29T06:46:06.590Z,9.20
2022-12-29T06:48:33.367Z,9.20
2022-12-29T06:51:00.013Z,9.10
2022-12-29T06:53:26.781Z,9.00
2022-12-29T06:55:53.522Z,10.80
2022-12-29T06:58:20.199Z,8.80
2022-12-29T07:00:47.021Z,8.80
2022-12-29T07:03:13.781Z,8.70
2022-12-29T07:05:40.698Z,8.70
2022-12-29T07:08:07.377Z,8.70
2022-12-29T07:10:34.116Z,9.70
2022-12-29T07:13:00.804Z,8.60
2022-12-29T07:15:27.487Z,8.50
2022-12-29T07:17:54.186Z,8.40
2022-12-29T07:20:26.571Z,8.40
2022-12-29T07:22:53.854Z,8.30
2022-12-29T07:25:20.574Z,8.20
2022-12-29T07:27:47.223Z,8.20
2022-12-29T07:30:13.975Z,9.40
2022-12-29T07:32:40.955Z,8.00
2022-12-29T07:35:07.913Z,8.10
2022-12-29T07:37:35.196Z,8.00
2022-12-29T07:40:02.157Z,7.90
2022-12-29T07:42:28.787Z,7.80
2022-12-29T07:44:55.474Z,8.00
2022-12-29T07:47:22.140Z,8.10
2022-12-29T07:49:48.796Z,8.10
2022-12-29T07:52:15.522Z,8.10
2022-12-29T07:54:42.294Z,8.20
2022-12-29T07:57:09.009Z,8.20
2022-12-29T07:59:35.652Z,8.20
2022-12-29T08:02:02.448Z,8.20
2022-12-29T08:04:29.192Z,8.30
2022-12-29T08:06:55.893Z,9.50
2022-12-29T08:09:24.442Z,8.30
2022-12-29T08:11:51.742Z,9.70
2022-12-29T08:14:19.244Z,8.40
2022-12-29T08:16:45.943Z,8.40
2022-12-29T08:19:13.326Z,8.50
2022-12-29T08:21:40.477Z,8.50
2022-12-29T08:24:07.304Z,8.80
2022-12-29T08:26:34.010Z,8.70
2022-12-29T08:29:00.706Z,8.70
2022-12-29T08:31:27.361Z,8.80
2022-12-29T08:33:59.272Z,10.30
2022-12-29T08:36:25.891Z,8.80
2022-12-29T08:38:52.994Z,8.90
2022-12-29T08:41:19.677Z,8.90
2022-12-29T08:43:47.034Z,9.00
2022-12-29T08:46:13.881Z,8.90
2022-12-29T08:48:40.697Z,8.90
2022-12-29T08:51:07.347Z,8.90
2022-12-29T08:53:34.070Z,9.00
2022-12-29T08:56:05.118Z,10.40
2022-12-29T08:58:32.922Z,9.40
2022-12-29T09:00:59.736Z,9.70
2022-12-29T09:03:54.935Z,9.80
2022-12-29T09:06:13.891Z,9.80
2022-12-29T09:08:40.688Z,11.90
2022-12-29T09:11:08.715Z,12.00
2022-12-29T09:13:35.836Z,10.20
2022-12-29T09:16:02.548Z,10.10
2022-12-29T09:18:29.199Z,10.30
2022-12-29T09:20:59.591Z,11.20
2022-12-29T09:23:26.761Z,10.50
2022-12-29T09:25:53.817Z,10.60
2022-12-29T09:28:21.163Z,11.60
2022-12-29T09:30:48.001Z,10.80
2022-12-29T09:33:14.755Z,10.80
2022-12-29T09:35:45.462Z,12.50
2022-12-29T09:38:12.445Z,11.00
2022-12-29T09:40:39.758Z,11.00
2022-12-29T09:43:12.644Z,12.60
2022-12-29T09:46:09.169Z,11.10
2022-12-29T09:48:38.734Z,11.20
2022-12-29T09:51:09.684Z,11.30
2022-12-29T09:53:41.093Z,11.30
2022-12-29T09:56:12.912Z,11.20
2022-12-29T09:58:43.577Z,11.30
2022-12-29T10:01:13.224Z,11.30
2022-12-29T10:03:47.897Z,11.10
2022-12-29T10:06:24.543Z,11.10
2022-12-29T10:09:03.464Z,12.20
2022-12-29T10:11:42.400Z,11.10
2022-12-29T10:14:32.147Z,11.10
2022-12-29T10:17:00.549Z,11.00
2022-12-29T10:19:47.499Z,11.20
2022-12-29T10:22:30.186Z,11.10
2022-12-29T10:24:58.023Z,11.20
2022-12-29T10:27:24.905Z,11.30
2022-12-29T10:29:55.051Z,11.30
2022-12-29T10:32:21.638Z,11.40
2022-12-29T10:34:52.061Z,11.40
2022-12-29T10:37:18.709Z,11.40
2022-12-29T10:39:48.854Z,11.50
2022-12-29T10:42:21.587Z,12.60
2022-12-29T10:44:48.214Z,11.40
2022-12-29T10:47:18.463Z,11.40
2022-12-29T10:49:46.844Z,11.30
2022-12-29T10:52:14.507Z,11.40
2022-12-29T10:54:50.392Z,11.20
2022-12-29T10:57:17.465Z,11.10
2022-12-29T10:59:44.237Z,12.50
2022-12-29T11:02:11.028Z,11.20
2022-12-29T11:04:48.111Z,11.20
2022-12-29T11:07:18.140Z,11.10
2022-12-29T11:09:46.236Z,11.30
2022-12-29T11:12:27.934Z,12.60
2022-12-29T11:15:06.824Z,11.00
2022-12-29T11:17:44.009Z,11.00
2022-12-29T11:20:29.540Z,11.10
2022-12-29T11:22:56.224Z,10.90
2022-12-29T11:25:23.015Z,12.40
2022-12-29T11:27:56.829Z,13.10
2022-12-29T11:30:28.126Z,11.00
2022-12-29T11:32:55.323Z,11.30
2022-12-29T11:35:32.883Z,12.90
2022-12-29T11:37:59.595Z,11.40
2022-12-29T11:40:26.569Z,12.70
2022-12-29T11:42:57.764Z,11.30
2022-12-29T11:45:25.959Z,11.10
2022-12-29T11:48:01.618Z,13.70
2022-12-29T11:50:31.239Z,10.90
2022-12-29T11:53:14.595Z,12.30
2022-12-29T11:55:41.264Z,10.80
2022-12-29T11:58:07.917Z,12.90
2022-12-29T12:00:37.069Z,12.30
2022-12-29T12:03:24.995Z,12.10
2022-12-29T12:06:00.793Z,10.60
2022-12-29T12:08:44.989Z,10.50
2022-12-29T12:11:19.633Z,10.50
2022-12-29T12:14:03.560Z,10.50
2022-12-29T12:16:41.142Z,10.40
2022-12-29T12:19:10.932Z,10.30
2022-12-29T12:21:45.491Z,10.30
2022-12-29T12:24:16.437Z,10.30
2022-12-29T12:26:56.145Z,10.30
2022-12-29T12:29:29.847Z,10.20
2022-12-29T12:31:59.981Z,10.20
2022-12-29T12:34:38.340Z,11.50
2022-12-29T12:37:05.031Z,10.10
2022-12-29T12:39:50.051Z,10.10
2022-12-29T12:42:26.944Z,10.10
2022-12-29T12:45:16.657Z,10.20
2022-12-29T12:47:52.335Z,10.20
2022-12-29T12:50:19.524Z,10.20
2022-12-29T12:53:14.153Z,10.20
2022-12-29T12:56:06.307Z,10.60
2022-12-29T12:58:44.892Z,10.30
2022-12-29T13:01:14.548Z,10.40
2022-12-29T13:04:00.257Z,10.40
2022-12-29T13:06:41.544Z,10.50
2022-12-29T13:09:14.407Z,10.40
2022-12-29T13:11:57.042Z,10.50
2022-12-29T13:14:26.504Z,10.50
2022-12-29T13:17:02.816Z,10.50
2022-12-29T13:19:39.983Z,10.50
2022-12-29T13:22:07.254Z,10.50
2022-12-29T13:24:52.713Z,10.50
2022-12-29T13:27:25.531Z,10.40
2022-12-29T13:30:03.719Z,10.30
2022-12-29T13:32:45.873Z,10.30
2022-12-29T13:35:23.368Z,10.30
2022-12-29T13:38:13.363Z,10.20
2022-12-29T13:40:42.623Z,10.20
2022-12-29T13:43:09.432Z,10.20
2022-12-29T13:45:36.684Z,10.30
2022-12-29T13:48:16.246Z,10.10
2022-12-29T13:50:44.802Z,10.20
2022-12-29T13:53:31.460Z,10.20
2022-12-29T13:56:07.422Z,10.20
2022-12-29T13:58:49.366Z,10.20
2022-12-29T14:01:31.109Z,10.30
2022-12-29T14:03:58.872Z,10.40
2022-12-29T14:06:26.989Z,10.50
2022-12-29T14:09:04.440Z,10.40
2022-12-29T14:11:38.699Z,10.40
2022-12-29T14:14:13.146Z,10.40
2022-12-29T14:16:40.066Z,10.50
2022-12-29T14:19:11.886Z,10.60
2022-12-29T14:21:38.923Z,10.50
2022-12-29T14:24:24.376Z,10.50
2022-12-29T14:26:51.029Z,10.40
2022-12-29T14:29:37.618Z,10.30
2022-12-29T14:32:24.232Z,10.40
2022-12-29T14:34:52.708Z,10.30
2022-12-29T14:37:27.384Z,10.20
2022-12-29T14:40:12.532Z,10.10
2022-12-29T14:42:41.247Z,9.90
2022-12-29T14:45:22.348Z,9.90
2022-12-29T14:47:50.132Z,9.80
2022-12-29T14:50:16.708Z,9.80
2022-12-29T14:52:46.514Z,9.80
2022-12-29T14:55:18.453Z,9.70
2022-12-29T14:57:48.703Z,9.70
2022-12-29T15:00:20.475Z,9.60
2022-12-29T15:02:49.795Z,9.60
2022-12-29T15:05:46.211Z,9.60
2022-12-29T15:08:13.985Z,9.60
2022-12-29T15:10:46.479Z,9.60
2022-12-29T15:13:18.329Z,11.70
2022-12-29T15:15:45.027Z,9.60
2022-12-29T15:18:15.660Z,12.60
2022-12-29T15:20:43.285Z,9.60
2022-12-29T15:23:15.931Z,9.70
2022-12-29T15:25:53.988Z,9.60
2022-12-29T15:28:21.804Z,9.60
2022-12-29T15:30:52.303Z,9.70
2022-12-29T15:33:20.029Z,9.70
2022-12-29T15:35:50.509Z,9.70
2022-12-29T15:38:26.230Z,9.70
2022-12-29T15:40:58.893Z,11.70
2022-12-29T15:43:34.167Z,9.60
2022-12-29T15:46:01.970Z,9.50
2022-12-29T15:48:28.888Z,9.50
2022-12-29T15:50:55.582Z,9.50
2022-12-29T15:53:29.182Z,9.50
2022-12-29T15:56:03.008Z,9.40
2022-12-29T15:58:31.334Z,9.40
2022-12-29T16:01:04.296Z,9.40
2022-12-29T16:03:33.273Z,9.40
2022-12-29T16:06:11.228Z,9.50
2022-12-29T16:08:40.740Z,9.50
2022-12-29T16:11:27.783Z,9.50
2022-12-29T16:13:55.595Z,9.50
2022-12-29T16:16:33.662Z,9.50
2022-12-29T16:19:02.459Z,9.50
2022-12-29T16:21:32.906Z,9.50
2022-12-29T16:24:17.248Z,9.50
2022-12-29T16:26:48.782Z,9.50
2022-12-29T16:29:15.775Z,9.50
2022-12-29T16:32:03.229Z,9.50
2022-12-29T16:34:31.898Z,9.40
2022-12-29T16:37:02.705Z,9.50
2022-12-29T16:39:40.421Z,9.50
2022-12-29T16:42:25.736Z,9.40
2022-12-29T16:45:01.851Z,9.40
2022-12-29T16:47:31.529Z,9.40
2022-12-29T16:50:11.303Z,10.40
2022-12-29T16:52:37.992Z,9.30
2022-12-29T16:55:05.061Z,11.30
2022-12-29T16:57:34.737Z,9.30
2022-12-29T17:00:03.742Z,9.30
2022-12-29T17:02:31.923Z,9.20
2022-12-29T17:04:59.015Z,9.10
2022-12-29T17:07:26.943Z,11.70
2022-12-29T17:09:56.527Z,9.00
2022-12-29T17:12:27.537Z,9.00
2022-12-29T17:14:54.180Z,8.90
2022-12-29T17:17:24.117Z,10.40
2022-12-29T17:19:55.457Z,8.80
2022-12-29T17:22:28.883Z,8.80
2022-12-29T17:24:56.445Z,8.70
2022-12-29T17:27:34.655Z,8.60
2022-12-29T17:30:03.734Z,8.60
2022-12-29T17:32:30.557Z,8.50
2022-12-29T17:34:57.297Z,8.60
2022-12-29T17:37:24.013Z,8.60
2022-12-29T17:39:52.791Z,8.50
2022-12-29T17:42:19.831Z,10.10
2022-12-29T17:44:46.802Z,8.50
2022-12-29T17:47:15.796Z,8.50
2022-12-29T17:49:46.230Z,8.50
2022-12-29T17:52:14.063Z,9.60
2022-12-29T17:54:49.475Z,8.40
2022-12-29T17:57:16.977Z,8.30
2022-12-29T17:59:43.951Z,8.30
2022-12-29T18:02:27.685Z,10.10
2022-12-29T18:04:54.850Z,8.20
2022-12-29T18:07:22.014Z,9.60
2022-12-29T18:09:48.738Z,8.10
2022-12-29T18:12:33.822Z,8.10
2022-12-29T18:15:00.655Z,7.90
2022-12-29T18:17:27.380Z,7.80
2022-12-29T18:19:54.855Z,8.60
2022-12-29T18:22:22.894Z,7.80
2022-12-29T18:24:49.661Z,10.10
2022-12-29T18:27:16.859Z,7.70
2022-12-29T18:29:43.452Z,7.80
2022-12-29T18:32:13.679Z,7.90
2022-12-29T18:34:40.968Z,7.90
2022-12-29T18:37:07.950Z,8.00
2022-12-29T18:39:34.712Z,8.00
2022-12-29T18:42:01.367Z,8.10
2022-12-29T18:44:28.247Z,10.70
2022-12-29T18:46:55.184Z,8.00
2022-12-29T18:49:21.886Z,8.00
2022-12-29T18:51:48.574Z,8.00
2022-12-29T18:54:32.164Z,8.00
2022-12-29T18:56:58.857Z,8.00
2022-12-29T18:59:26.080Z,8.00
2022-12-29T19:01:52.819Z,8.00
2022-12-29T19:04:19.636Z,8.00
2022-12-29T19:06:46.382Z,7.20
2022-12-29T19:09:13.823Z,8.00
2022-12-29T19:11:40.738Z,7.90
2022-12-29T19:14:11.797Z,7.90
2022-12-29T19:16:38.554Z,9.60
2022-12-29T19:19:09.380Z,7.90
2022-12-29T19:21:37.361Z,7.80
2022-12-29T19:24:04.162Z,7.80
2022-12-29T19:26:32.004Z,9.90
2022-12-29T19:28:59.859Z,7.70
2022-12-29T19:31:26.592Z,7.60
2022-12-29T19:33:53.603Z,8.30
2022-12-29T19:36:20.959Z,7.50
2022-12-29T19:38:47.679Z,7.40
2022-12-29T19:41:14.693Z,7.30
2022-12-29T19:43:41.464Z,7.30
2022-12-29T19:46:09.144Z,7.20
2022-12-29T19:48:36.562Z,7.20
2022-12-29T19:51:04.311Z,7.20
2022-12-29T19:53:30.899Z,7.20
2022-12-29T19:55:57.818Z,7.10
2022-12-29T19:58:24.513Z,7.10
2022-12-29T20:00:51.331Z,7.00
2022-12-29T20:03:19.338Z,7.10
2022-12-29T20:05:49.080Z,7.10
2022-12-29T20:08:15.711Z,7.00
2022-12-29T20:10:42.293Z,6.90
2022-12-29T20:13:08.933Z,6.90
2022-12-29T20:15:35.697Z,7.00
2022-12-29T20:18:17.768Z,6.90
2022-12-29T20:20:44.488Z,9.60
2022-12-29T20:23:11.189Z,6.90
2022-12-29T20:25:46.456Z,6.90
2022-12-29T20:28:14.896Z,6.90
2022-12-29T20:30:41.619Z,6.80
2022-12-29T20:33:08.944Z,6.80
2022-12-29T20:35:36.309Z,6.80
2022-12-29T20:38:03.468Z,6.80
2022-12-29T20:40:30.110Z,5.40
2022-12-29T20:42:56.889Z,6.70
2022-12-29T20:45:23.813Z,6.70
2022-12-29T20:47:50.572Z,6.70
2022-12-29T20:50:17.267Z,6.70
2022-12-29T20:52:44.024Z,6.70
2022-12-29T20:55:10.841Z,6.70
2022-12-29T20:58:13.661Z,6.70
2022-12-29T21:00:24.419Z,8.20
2022-12-29T21:02:52.610Z,6.60
2022-12-29T21:05:24.141Z,6.70
2022-12-29T21:07:51.844Z,6.60
2022-12-29T21:10:18.639Z,6.60
2022-12-29T21:12:45.325Z,6.60
2022-12-29T21:15:14.374Z,6.60
2022-12-29T21:17:41.641Z,6.60
2022-12-29T21:20:08.662Z,6.60
2022-12-29T21:22:35.303Z,6.60
2022-12-29T21:25:02.098Z,6.50
2022-12-29T21:27:29.211Z,6.50
2022-12-29T21:29:57.993Z,6.50
2022-12-29T21:32:24.620Z,6.40
2022-12-29T21:34:51.363Z,6.50
2022-12-29T21:37:23.356Z,6.40
2022-12-29T21:39:50.455Z,7.50
2022-12-29T21:42:17.127Z,6.30
2022-12-29T21:45:02.516Z,6.40
2022-12-29T21:47:49.147Z,6.30
2022-12-29T21:50:15.828Z,6.20
2022-12-29T21:52:42.497Z,6.20
2022-12-29T21:55:09.304Z,6.20
2022-12-29T21:57:55.235Z,6.10
2022-12-29T22:00:40.563Z,6.10
2022-12-29T22:03:25.839Z,6.00
2022-12-29T22:06:11.376Z,6.00
2022-12-29T22:08:57.304Z,6.00
2022-12-29T22:11:42.733Z,6.00
2022-12-29T22:14:09.389Z,6.00
2022-12-29T22:16:36.045Z,5.90
2022-12-29T22:19:02.922Z,6.00
2022-12-29T22:21:29.676Z,8.00
2022-12-29T22:23:56.337Z,5.90
2022-12-29T22:26:22.922Z,6.00
2022-12-29T22:28:51.985Z,5.90
2022-12-29T22:31:29.534Z,5.90
2022-12-29T22:33:57.182Z,5.90
2022-12-29T22:36:24.578Z,6.00
2022-12-29T22:38:51.560Z,5.90
2022-12-29T22:41:18.285Z,6.00
2022-12-29T22:43:44.997Z,6.00
2022-12-29T22:46:12.021Z,5.90
2022-12-29T22:48:38.751Z,5.90
2022-12-29T22:51:05.661Z,5.90
2022-12-29T22:53:32.354Z,5.90
2022-12-29T22:56:06.314Z,5.90
2022-12-29T22:58:33.034Z,5.80
2022-12-29T23:00:59.852Z,5.80
2022-12-29T23:03:26.930Z,5.80
2022-12-29T23:05:57.885Z,5.80
2022-12-29T23:08:24.744Z,5.70
2022-12-29T23:10:51.409Z,5.80
2022-12-29T23:13:18.080Z,5.80
2022-12-29T23:15:45.072Z,5.80
2022-12-29T23:18:11.758Z,5.80
2022-12-29T23:20:39.036Z,5.80
2022-12-29T23:23:05.672Z,5.80
2022-12-29T23:25:34.792Z,5.80
2022-12-29T23:28:01.478Z,5.80
2022-12-29T23:30:28.111Z,5.80
2022-12-29T23:32:54.815Z,5.80
2022-12-29T23:35:21.496Z,5.70
2022-12-29T23:37:48.186Z,5.80
2022-12-29T23:40:14.842Z,5.80
2022-12-29T23:42:41.560Z,5.80
2022-12-29T23:45:08.432Z,5.80
2022-12-29T23:47:35.027Z,5.80
2022-12-29T23:50:01.781Z,5.80
2022-12-29T23:52:28.512Z,5.80
2022-12-29T23:54:55.239Z,5.80
2022-12-29T23:57:21.881Z,5.90
2022-12-29T23:59:48.555Z,5.90
